Bruno Araujo

Scout - Nacional
5 Dez 2027
Sonntag
Verarbeitung

Persönlichkeit

Anpassungsfähigkeit (6) Ehrgeiz (11) Kontroverse (1) Loyalität (12) Druck (17) Professionalität (1) Fairness (19) Temperament (15)

Profil

Trainerstil Demokratisch
Lizenz Nationale B
Entschlossenheit 7
Menschenführung 5
Motivation 11
Disziplin 14
Arbeitszufriedenheit
100%
Ermüdung
0%
Rolle Scout
Gehalt 105.4K p/W
Vertrag 14.03.2029

Leistung

Verhalten Gut
Trainingseffektivität
58%
Spielerentwicklung
30%
Verletzungsprävention
70%
Taktische Umsetzung
55%

Letzte Ereignisse

Spieler begutachtet jetzt
Nahm an einer Scouting-Besprechung teil jetzt
Empfahl ein Transferziel jetzt
Nahm an einer Scouting-Besprechung teil 7T her
Empfahl ein Transferziel 7T her
Empfahl ein Transferziel 7T her
Empfahl ein Transferziel 7T her
Spieler begutachtet 7T her

Aktuell beobachtet

301
Spieler Verein Status Fähigkeit Vertrauen Beobachtet Zuletzt beobachtet Letzte Stimme
Ignacio Yepez Cerrito Bericht bereit 115 / 107 83% 1 01.12.2027 -
Ivan Borges Defensores Aktiv 83 / 92 40% 3 29.11.2027 -
Mateo Ferrari Atlanta Aktiv 84 / 88 40% 3 29.11.2027 -
Braian Cabral Madryn Aktiv 92 / 93 40% 1 29.11.2027 -
Mauro Carrizo Atlético Tucumán Aktiv 103 / 104 40% 1 27.11.2027 -
Celías Ingenthron Platense Aktiv 115 / 126 40% 1 27.11.2027 -
Joel Ezra Enyimba Aktiv 99 / 93 40% 1 27.11.2027 -
Agustín Obregón River Plate Aktiv 114 / 123 40% 3 21.11.2027 -
Emiliano Bértoli Patronato Aktiv 95 / 103 40% 1 21.11.2027 -
Samuel Molano Patriotas Aktiv 85 / 92 40% 1 21.11.2027 -
Máximo Munarriz San Telmo Aktiv 92 / 102 40% 1 20.11.2027 -
Nazareno Roselli Defensa y Justicia Aktiv 114 / 123 40% 1 20.11.2027 -
Lautaro Quiroga Defensa y Justicia Aktiv 101 / 110 40% 1 17.11.2027 -
Valentín Weinzettel Patronato Aktiv 84 / 100 40% 1 17.11.2027 -
Andres Rondon Llaneros Aktiv 91 / 91 40% 2 16.11.2027 -
Juan Camilo Córdoba Deportivo Pereira Aktiv 90 / 91 40% 1 16.11.2027 -
Timoteo Chamorro Talleres Aktiv 106 / 117 40% 1 16.11.2027 -
Ignacio Ovando Rosario Central Aktiv 105 / 112 40% 2 14.11.2027 -
Uche Jaguar Kwara United Aktiv 92 / 105 40% 2 14.11.2027 -
Ulises Giménez River Plate Aktiv 114 / 119 40% 1 12.11.2027 -
Dylan Gorosito Boca Juniors Aktiv 114 / 114 40% 1 06.11.2027 -
David Damboama El-Kanemi Warriors Aktiv 86 / 84 40% 1 06.11.2027 -
Benito Paklayan Alvarado Aktiv 83 / 89 40% 2 05.11.2027 -
Estanislao López Colón Aktiv 92 / 104 40% 1 05.11.2027 -
Gideon Manaseh Ikorodu City Aktiv 84 / 99 40% 1 05.11.2027 -
Felipe Obradovich Lanús Aktiv 105 / 119 40% 1 04.11.2027 -
Octavio Ontivero Lanús Aktiv 109 / 113 40% 1 04.11.2027 -
Matías Argüello Libertad Aktiv 97 / 102 40% 1 03.11.2027 -
Dilan Acosta Defensores Aktiv 95 / 100 40% 1 02.11.2027 -
Matías Pandiella Ferro Carril Oeste Aktiv 93 / 95 40% 1 02.11.2027 -
Santiago López All Boys Aktiv 83 / 87 40% 1 01.11.2027 -
Lucas Barrientos Los Andes Aktiv 99 / 99 40% 1 01.11.2027 -
Facundo Milán Central Espanol Aktiv 107 / 107 42% 1 / 1m 28.07.2027 -
Esteban Obregón Montevideo City Torque Aktiv 118 / 122 83% 1 12.07.2027 Befürworten
Máximo Alonso Central Espanol Aktiv 112 / 103 83% 1 03.06.2027 Befürworten
Ivo Costantino Danubio Aktiv 109 / 107 83% 1 01.06.2027 Befürworten
Alex Scott Bournemouth Aktiv 146 / 148 40% 4 31.05.2027 -
Ilyas Ansah Hull City Aktiv 138 / 139 40% 6 31.05.2027 -
Bobby Clark Derby County Aktiv 125 / 133 40% 1 31.05.2027 -
Ethan Galbraith Swansea City Aktiv 127 / 141 40% 6 30.05.2027 -
Ferdi Kadıoğlu Stoke City Aktiv 157 / 152 40% 3 30.05.2027 -
Christ Makosso Luton Town Aktiv 113 / 113 40% 1 30.05.2027 -
Cristian Shpendi Cesena Aktiv 135 / 130 40% 5 29.05.2027 -
Zeki Amdouni Burnley Aktiv 139 / 132 40% 6 29.05.2027 -
Liam Delap Nottingham Forest Aktiv 147 / 150 40% 2 28.05.2027 -
Zian Flemming Ipswich Town Aktiv 133 / 124 40% 5 27.05.2027 -
Noah Okafor Leeds United Aktiv 143 / 143 40% 3 27.05.2027 -
Igor Burnley Aktiv 149 / 138 40% 2 27.05.2027 -
Max Arfsten Middlesbrough Aktiv 121 / 121 40% 1 27.05.2027 -
Petar Musa Norwich City Aktiv 136 / 131 40% 3 25.05.2027 -
Aaron Hickey Brentford Aktiv 149 / 155 40% 3 24.05.2027 -
Noah Sadiki Sunderland Aktiv 143 / 155 40% 4 24.05.2027 -
Brooke Norton-Cuffy Hull City Aktiv 140 / 145 40% 4 24.05.2027 -
Taty Castellanos West Ham United Aktiv 147 / 142 40% 6 24.05.2027 -
Gianluca Scamacca Atalanta Aktiv 151 / 144 40% 4 21.05.2027 -
Alessandro Buongiorno Udinese Aktiv 161 / 159 40% 3 20.05.2027 -
Žan Vipotnik Swansea City Aktiv 129 / 130 40% 3 20.05.2027 -
Lucas Rodríguez Albion Aktiv 120 / 120 30% 1 / 1m 19.05.2027 -
Alejandro Elduayen La Luz Aktiv 90 / 93 42% 1 / 1m 19.05.2027 -
Lewis Cook Bournemouth Aktiv 141 / 155 40% 2 18.05.2027 -
Exequiel Palacios Ipswich Town Aktiv 155 / 153 40% 3 18.05.2027 -
Guille Rosas Gijón Aktiv 138 / 137 40% 2 18.05.2027 -
Quinten Timber Crystal Palace Aktiv 144 / 142 40% 4 16.05.2027 -
Donyell Malen AS Roma Aktiv 158 / 155 40% 3 16.05.2027 -
Tom Cannon Sheffield United Aktiv 136 / 123 40% 4 16.05.2027 -
Jens Odgaard Bologna Aktiv 140 / 138 40% 2 16.05.2027 -
Jacob Greaves Ipswich Town Aktiv 132 / 138 40% 2 15.05.2027 -
Milan van Ewijk Coventry City Aktiv 130 / 134 40% 2 13.05.2027 -
Giovane Napoli Aktiv 141 / 142 40% 3 13.05.2027 -
James Garner Everton Aktiv 153 / 159 40% 6 13.05.2027 -
Ignacio Russo Tigre Aktiv 131 / 132 40% 1 13.05.2027 -
Tariq Lamptey Queens Park Rangers Aktiv 128 / 143 40% 1 13.05.2027 -
Efraín Álvarez Udinese Aktiv 139 / 125 40% 4 11.05.2027 -
Alan Velasco Boca Juniors Aktiv 126 / 134 40% 2 11.05.2027 -
Musa Barrow Al-Khaleej Aktiv 143 / 126 40% 14 10.05.2027 -
Lorenzo Colombo Genoa Aktiv 138 / 145 40% 4 10.05.2027 -
Gonzalo Fulham Aktiv 147 / 144 40% 4 08.05.2027 -
Giacomo Raspadori Atalanta Aktiv 145 / 146 40% 4 05.05.2027 -
Toni Fruk Ipswich Town Aktiv 142 / 138 40% 2 05.05.2027 -
Miguel Rodríguez Caracas Aktiv 132 / 129 40% 3 03.05.2027 -
Álvaro Rodríguez Bournemouth Aktiv 135 / 131 40% 3 03.05.2027 -
Saša Lukić Ipswich Town Aktiv 139 / 132 40% 1 03.05.2027 -
Dominic Calvert-Lewin Leeds United Aktiv 138 / 146 40% 2 30.04.2027 -
Hwang Hee-Chan Wolverhampton Aktiv 131 / 134 40% 6 29.04.2027 -
Jimmy Dunne Queens Park Rangers Aktiv 122 / 124 40% 2 27.04.2027 -
Richarlison Everton Aktiv 147 / 140 40% 3 27.04.2027 -
Zakaria Aboukhlal Torino Aktiv 134 / 125 40% 1 27.04.2027 -
Giovanni Simeone Torino Aktiv 139 / 135 40% 3 26.04.2027 -
Nicolás Fernández Belgrano Aktiv 129 / 127 40% 1 24.04.2027 -
Julián Quiñones Al-Qadisiyah Aktiv 154 / 149 40% 4 23.04.2027 -
Dara O'Shea Ipswich Town Aktiv 141 / 130 40% 4 21.04.2027 -
Máximo Perrone Como Aktiv 143 / 143 40% 2 21.04.2027 -
Flynn Downes Southampton Aktiv 138 / 127 40% 1 21.04.2027 -
Facundo Miño Deportivo Riestra Aktiv 117 / 125 40% 1 21.04.2027 -
Tim Iroegbunam Hull City Aktiv 135 / 133 40% 3 19.04.2027 -
Japhet Tanganga Sheffield United Aktiv 130 / 127 40% 2 19.04.2027 -
André Wolverhampton Aktiv 139 / 153 40% 1 19.04.2027 -
Keinan Davis Udinese Aktiv 128 / 129 40% 2 18.04.2027 -
Mathías Olivera Napoli Aktiv 140 / 142 40% 4 16.04.2027 -
Ousmane Diomande Nottingham Forest Aktiv 160 / 163 40% 2 16.04.2027 -
Santiago Pierotti Lecce Aktiv 132 / 125 40% 1 16.04.2027 -
Youssef En-Nesyri Al-Ittihad Aktiv 143 / 132 40% 3 14.04.2027 -
Vitinha Genoa Aktiv 129 / 131 40% 1 12.04.2027 -
Kenny Tete Fulham Aktiv 147 / 140 40% 2 11.04.2027 -
Takehiro Tomiyasu Crystal Palace Aktiv 139 / 155 40% 1 10.04.2027 -
Charles De Ketelaere Atalanta Aktiv 152 / 152 40% 6 08.04.2027 -
Yasin Ayari Brighton Aktiv 149 / 156 40% 4 07.04.2027 -
Juanlu Bournemouth Aktiv 146 / 140 40% 3 07.04.2027 -
Imrân Louza Watford Aktiv 134 / 133 40% 3 07.04.2027 -
Pablo Felipe West Ham United Aktiv 136 / 132 40% 3 05.04.2027 -
Edoardo Motta Lazio Aktiv 118 / 126 40% 1 01.04.2027 -
Killian Cahill Leyton Orient Aktiv 104 / 98 40% 1 01.04.2027 -
Gonzalo Siri Argentinos Juniors Aktiv 108 / 115 40% 1 01.04.2027 -
Alfie Doughty Millwall Aktiv 121 / 124 40% 1 29.03.2027 -
Jarrod Bowen West Ham United Aktiv 146 / 149 40% 4 27.03.2027 -
Victor Kristiansen Leicester City Aktiv 124 / 133 40% 2 26.03.2027 -
Adam Wharton Crystal Palace Aktiv 152 / 163 40% 1 24.03.2027 -
Luke McNally Bristol City Aktiv 135 / 124 40% 2 22.03.2027 -
Matthew Targett Hull City Aktiv 134 / 126 40% 1 22.03.2027 -
Rodrigo Muniz Fulham Aktiv 133 / 141 40% 2 19.03.2027 -
Carlos Gruezo Santos Laguna Aktiv 133 / 131 40% 2 18.03.2027 -
Welington Southampton Aktiv 122 / 125 40% 1 18.03.2027 -
Florentino Luís Ipswich Town Aktiv 142 / 148 40% 2 17.03.2027 -
Iker Zufiaurre Boca Juniors Aktiv 123 / 128 52% 1 / 1m 17.03.2027 -
Bobby Thomas Coventry City Aktiv 138 / 139 40% 3 15.03.2027 -
Armando Broja Burnley Aktiv 129 / 129 40% 2 13.03.2027 -
Jacques Ekomié Wrexham Aktiv 127 / 122 40% 2 12.03.2027 -
Hans Nicolussi Caviglia Parma Aktiv 142 / 139 40% 1 12.03.2027 -
Calvin Bassey Fulham Aktiv 146 / 157 40% 1 12.03.2027 -
Michael Baidoo Plymouth Argyle Aktiv 131 / 117 40% 2 10.03.2027 -
Dango Ouattara Brentford Aktiv 152 / 143 40% 3 10.03.2027 -
Sondre Langås Derby County Aktiv 130 / 125 40% 1 10.03.2027 -
Evan N'Dicka AS Roma Aktiv 158 / 146 40% 1 10.03.2027 -
Ali Rashid Al Ahli Aktiv 124 / 126 40% 4 06.03.2027 -
Tyrese Campbell Sheffield United Aktiv 134 / 130 40% 3 06.03.2027 -
Nordi Mukiele Sunderland Aktiv 151 / 141 40% 2 05.03.2027 -
Harry Clarke Preston Aktiv 133 / 119 40% 1 05.03.2027 -
Lewis O'Brien Wrexham Aktiv 123 / 116 40% 1 04.03.2027 -
Nicolás Domínguez Nottingham Forest Aktiv 145 / 141 40% 2 03.03.2027 -
Habib Diarra Sunderland Aktiv 141 / 133 40% 2 27.02.2027 -
Kwadwo Duah Ludogorets Aktiv 132 / 125 40% 1 27.02.2027 -
Adam Randell Bristol City Aktiv 124 / 138 40% 1 26.02.2027 -
Lewis Travis Derby County Aktiv 130 / 125 40% 1 24.02.2027 -
Cameron Archer Southampton Aktiv 123 / 120 40% 2 22.02.2027 -
Bradley Fink Wycombe Wanderers Aktiv 112 / 114 40% 1 22.02.2027 -
Antonee Robinson Fulham Aktiv 153 / 153 40% 1 20.02.2027 -
Óscar Mingueza Crystal Palace Aktiv 146 / 159 40% 2 19.02.2027 -
Jack Currie Oxford United Aktiv 130 / 129 40% 1 19.02.2027 -
Sander Berge Fulham Aktiv 137 / 153 40% 1 19.02.2027 -
Adrià Altimira Deportivo La Coruña Aktiv 131 / 136 40% 1 17.02.2027 -
Felipe Augusto Zenit Aktiv 128 / 126 40% 1 14.02.2027 -
Michael Kayode Brentford Aktiv 151 / 155 40% 1 12.02.2027 -
Ethan Ampadu Leeds United Aktiv 144 / 138 40% 1 12.02.2027 -
Toti Wolverhampton Aktiv 136 / 127 40% 1 11.02.2027 -
Sergej Milinković-Savić Al-Hilal Aktiv 161 / 162 40% 2 09.02.2027 -
Luca Langoni New England Revolution Aktiv 127 / 127 40% 1 08.02.2027 -
Dániel Gazdag New England Revolution Aktiv 130 / 139 40% 2 07.02.2027 -
Jesus Ferreira Seattle Sounders Aktiv 130 / 123 40% 2 06.02.2027 -
Manfred Ugalde Spartak Moscow Aktiv 128 / 133 40% 1 06.02.2027 -
Rumarn Burrell Queens Park Rangers Aktiv 134 / 134 40% 2 05.02.2027 -
Job Ochieng Real Sociedad Aktiv 98 / 109 40% 2 05.02.2027 -
Edoardo Bove Watford Aktiv 130 / 122 40% 1 05.02.2027 -
Danil Glebov Dinamo Moscow Aktiv 122 / 136 40% 1 05.02.2027 -
Kristoffer Lund Birmingham Aktiv 120 / 119 40% 2 03.02.2027 -
Timothy Castagne CSKA Moscow Aktiv 135 / 133 40% 1 03.02.2027 -
Lukas Nmecha Leeds United Aktiv 129 / 129 40% 2 02.02.2027 -
Yarden Shua Beitar Jerusalem Aktiv 127 / 128 40% 2 01.02.2027 -
Alexandr Sobolev Zenit Aktiv 131 / 133 40% 2 01.02.2027 -
Veljko Birmančević Ferencvaros Aktiv 134 / 140 40% 3 30.01.2027 -
Aarón Quiros Vélez Aktiv 125 / 129 40% 3 30.01.2027 -
Luis Chávez Dinamo Moscow Aktiv 135 / 134 40% 3 29.01.2027 -
Marco Di Cesare Racing Club Aktiv 131 / 128 40% 6 29.01.2027 -
Álex Centelles Levski Aktiv 125 / 117 40% 1 29.01.2027 -
Paik Seung-Ho Birmingham Aktiv 131 / 115 40% 1 27.01.2027 -
Sindre Walle Egeli Ipswich Town Aktiv 126 / 143 40% 1 24.01.2027 -
Mohamed Simakan Al-Nassr Aktiv 134 / 132 40% 1 23.01.2027 -
Ross McCrorie Bristol City Aktiv 124 / 127 40% 1 22.01.2027 -
Lloyd Jones Charlton Athletic Aktiv 130 / 121 40% 1 22.01.2027 -
Wendel Zenit Aktiv 137 / 148 40% 3 21.01.2027 -
Kayne Ramsay Charlton Athletic Aktiv 125 / 121 40% 2 21.01.2027 -
Max Bird Birmingham Aktiv 127 / 120 40% 2 21.01.2027 -
Franculino West Ham United Aktiv 134 / 139 40% 1 19.01.2027 -
Amir Hossein Hosseinzadeh Tractor Aktiv 131 / 129 40% 1 17.01.2027 -
Ben Nelson Leicester City Aktiv 123 / 124 40% 1 12.01.2027 -
Tomáš Chorý CSKA Moscow Aktiv 139 / 130 40% 1 10.01.2027 -
Ângelo Al-Nassr Aktiv 131 / 139 40% 2 09.01.2027 -
Eoin Toal Bolton Wanderers Aktiv 127 / 117 40% 1 09.01.2027 -
Yacine Adli Al-Shabab Aktiv 131 / 137 40% 3 06.01.2027 -
Alfie Jones Middlesbrough Aktiv 125 / 125 40% 1 06.01.2027 -
Rob Atkinson Bristol City Aktiv 126 / 131 40% 1 04.01.2027 -
Harrison Burrows Sheffield United Aktiv 126 / 132 40% 1 04.01.2027 -
Mohamed Ali Ben Romdhane Al Ahly Aktiv 132 / 134 40% 1 04.01.2027 -
Hidemasa Morita Hull City Aktiv 135 / 145 40% 1 02.01.2027 -
Ola Aina Nottingham Forest Aktiv 138 / 148 40% 1 01.01.2027 -
Stephen Eustáquio Swansea City Aktiv 140 / 130 40% 1 01.01.2027 -
Nobel Mendy Hull City Aktiv 127 / 131 40% 1 30.12.2026 -
Issa Kaboré Wrexham Aktiv 129 / 121 40% 1 30.12.2026 -
Ollie Scarles West Ham United Aktiv 123 / 136 40% 1 30.12.2026 -
Josh Cullen Burnley Aktiv 133 / 131 40% 1 30.12.2026 -
Mattie Pollock Watford Aktiv 123 / 118 40% 1 28.12.2026 -
Carlos Gugenheim Almirante Brown Aktiv 112 / 120 40% 1 21.12.2026 -
Armstrong Oko-Flex Levski Aktiv 127 / 125 40% 1 21.12.2026 -
Nail Umyarov Spartak Moscow Aktiv 126 / 134 40% 1 16.12.2026 -
Santiago Núñez Estudiantes Aktiv 129 / 125 40% 1 16.12.2026 -
Jonathan Varane Queens Park Rangers Aktiv 124 / 125 40% 1 16.12.2026 -
Brandon Austin Bristol City Aktiv 128 / 135 40% 1 14.12.2026 -
Riqui Puig LA Galaxy Aktiv 129 / 137 40% 3 30.11.2026 -
Óscar Al-Diriyah Aktiv 128 / 117 40% 3 30.11.2026 -
Nahitan Nández CSKA Moscow Aktiv 138 / 141 40% 4 28.11.2026 -
Evander NK Osijek Aktiv 139 / 140 40% 2 27.11.2026 -
Petar Stanić Ludogorets Aktiv 129 / 132 40% 4 26.11.2026 -
Bosun Lawal Stoke City Aktiv 119 / 120 40% 1 26.11.2026 -
Jan Koutný Sigma Olomouc Aktiv 117 / 113 40% 2 24.11.2026 -
Mandla Phiri SuperSport United Aktiv 135 / 134 40% 2 24.11.2026 -
Rúben Neves Al-Hilal Aktiv 158 / 156 40% 2 24.11.2026 -
Melker Ellborg Sunderland Aktiv 122 / 118 40% 1 24.11.2026 -
Radek Vítek Middlesbrough Aktiv 137 / 128 40% 1 24.11.2026 -
Josh Keeley Luton Town Aktiv 129 / 124 40% 1 23.11.2026 -
Douglas Augusto Krasnodar Aktiv 131 / 130 40% 2 21.11.2026 -
Nicolás Marichal Dinamo Moscow Aktiv 132 / 118 40% 1 21.11.2026 -
Teboho Mokoena Mamelodi Sundowns Aktiv 128 / 122 40% 3 19.11.2026 -
Allan Saint-Maximin Charlotte Football Club Aktiv 141 / 134 40% 3 17.11.2026 -
Nemanja Radonjić Crvena Zvezda Aktiv 137 / 130 40% 1 17.11.2026 -
Aitor Fraga Real Sociedad Aktiv 122 / 123 40% 1 16.11.2026 -
Joseph Sulemana WAFA Aktiv 106 / 94 40% 1 16.11.2026 -
Sergi Palencia Los Angeles Football Club Aktiv 120 / 128 40% 1 16.11.2026 -
Marcelo Allende Mamelodi Sundowns Aktiv 129 / 121 40% 3 15.11.2026 -
Telasco Segovia Inter Miami CF Aktiv 131 / 128 40% 2 13.11.2026 -
Jens Petter Hauge Bodo/Glimt Aktiv 133 / 128 40% 1 12.11.2026 -
José Gayà Valencia Aktiv 138 / 145 40% 6 09.11.2026 -
Oleh Ocheretko Shakhtar Aktiv 127 / 130 40% 3 09.11.2026 -
Lukáš Provod Slavia Prague Aktiv 140 / 154 40% 2 08.11.2026 -
Patrick Berg Bodo/Glimt Aktiv 147 / 150 40% 2 07.11.2026 -
Sergio Reguilón Inter Miami CF Aktiv 139 / 143 40% 3 05.11.2026 -
Conrad Wallem Bodo/Glimt Aktiv 128 / 130 40% 2 05.11.2026 -
Oleksandr Zinchenko Shakhtar Aktiv 155 / 150 40% 2 05.11.2026 -
Facundo Pellistri Panathinaikos Aktiv 133 / 127 40% 1 03.11.2026 -
Obinna Nwobodo FC Cincinnati Aktiv 123 / 122 40% 1 02.11.2026 -
Diego Enríquez Sporting Cristal Aktiv 125 / 132 40% 3 30.10.2026 -
Pascal Loretz Luzern Aktiv 117 / 118 40% 3 30.10.2026 -
Ángel Espínola Sportivo Luqueno Aktiv 101 / 96 40% 1 30.10.2026 -
Facundo Garcés Alavés Aktiv 134 / 138 40% 1 29.10.2026 -
Ferland Mendy Basel Aktiv 143 / 138 40% 4 27.10.2026 -
Esequiel Barco Spartak Moscow Aktiv 138 / 140 40% 3 26.10.2026 -
Stanislav Lobotka FC Copenhagen Aktiv 163 / 156 40% 3 26.10.2026 -
Cristian Espinoza Nashville SC Aktiv 137 / 134 40% 6 22.10.2026 -
Marcel Hartel St. Louis CITY SC Aktiv 137 / 137 40% 1 21.10.2026 -
Andreas Hanche-Olsen Chicago Fire Aktiv 136 / 142 40% 1 21.10.2026 -
Philip Billing FC Midtjylland Aktiv 130 / 127 40% 1 20.10.2026 -
Mikkel Desler Austin FC Aktiv 122 / 118 40% 1 20.10.2026 -
Lucas Torreira Galatasaray Aktiv 152 / 145 40% 4 19.10.2026 -
Miles Robinson FC Cincinnati Aktiv 127 / 140 40% 1 19.10.2026 -
Matías Dufour Sportivo Trinidense Aktiv 104 / 113 40% 1 18.10.2026 -
Francisco Vergara Gimnasia La Plata Aktiv 97 / 104 40% 1 18.10.2026 -
Bryan Ramírez FC Cincinnati Aktiv 130 / 122 40% 1 17.10.2026 -
David Brekalo Orlando City Aktiv 126 / 134 40% 1 17.10.2026 -
Giorgi Kochorashvili Sevilla Aktiv 120 / 119 40% 1 16.10.2026 -
Emanuel Sittaro Instituto Aktiv 92 / 100 40% 1 15.10.2026 -
Javier Vallejos Central Córdoba SdE Aktiv 99 / 105 40% 1 15.10.2026 -
Patrick Schulte Columbus Crew Aktiv 129 / 125 40% 1 14.10.2026 -
Adrián Marín Orlando City Aktiv 128 / 126 40% 1 12.10.2026 -
Heorhii Yermakov Metalist Aktiv 118 / 121 40% 2 09.10.2026 -
Emiliano Márquez Central Espanol Aktiv 93 / 99 40% 1 09.10.2026 -
Brais Méndez Columbus Crew Aktiv 151 / 152 40% 6 08.10.2026 -
Leandro Trossard Besiktas Aktiv 151 / 153 40% 1 07.10.2026 -
Eduard Löwen San Jose Earthquakes Aktiv 128 / 127 40% 1 05.10.2026 -
Eduardo Darias Penarol Aktiv 125 / 136 40% 2 04.10.2026 -
Jonathan Bamba Chicago Fire Aktiv 130 / 123 40% 2 03.10.2026 -
Isaac Boehmer Vancouver Whitecaps Aktiv 100 / 96 40% 1 30.09.2026 -
Nacho Vidal Lech Aktiv 123 / 126 40% 1 29.09.2026 -
Joseph Paintsil LA Galaxy Aktiv 125 / 126 40% 1 29.09.2026 -
Ángel Maciel Tacuarembo Aktiv 100 / 100 40% 3 27.09.2026 -
Stanislav Agkatsev CSKA Moscow Aktiv 131 / 142 40% 2 25.09.2026 -
Haissem Hassan Bloemfontein Celtic Aktiv 124 / 135 40% 1 24.09.2026 -
Franco Carretero Deportivo Lara Aktiv 98 / 98 40% 1 22.09.2026 -
Joaquín Canadell Quilmes Aktiv 91 / 91 40% 1 22.09.2026 -
Djordje Mihailović Toronto FC Aktiv 129 / 134 40% 1 22.09.2026 -
Gabriel Pirani San Diego Football Club Aktiv 127 / 138 40% 2 21.09.2026 -
Elias Achouri San Diego Football Club Aktiv 138 / 124 40% 1 20.09.2026 -
Lucas Ruiz Al Shabab Aktiv 115 / 113 40% 4 18.09.2026 -
David Douděra FC Cincinnati Aktiv 130 / 135 40% 1 18.09.2026 -
Răzvan Sava Universitatea Craiova Aktiv 128 / 130 40% 2 14.09.2026 -
Erik Lira Cruz Azul Aktiv 131 / 138 40% 4 13.09.2026 -
Adalberto Carrasquilla Pumas UNAM Aktiv 124 / 125 40% 1 13.09.2026 -
Gerardo Arteaga Monterrey Aktiv 124 / 137 40% 1 13.09.2026 -
Lautaro Amadé Defensa y Justicia Aktiv 117 / 112 40% 1 11.09.2026 -
Alejandro Zendejas Club America Aktiv 133 / 148 40% 3 10.09.2026 -
Carlos Rodríguez Cruz Azul Aktiv 137 / 146 40% 4 08.09.2026 -
Agustín Palavecino Cruz Azul Aktiv 139 / 133 40% 2 06.09.2026 -
Carlos Rotondi Cruz Azul Aktiv 135 / 120 40% 1 06.09.2026 -
Carlos Álvarez Club America Aktiv 136 / 132 40% 3 03.09.2026 -
Oussama Idrissi Pachuca Aktiv 133 / 149 40% 1 31.08.2026 -
Orbelín Pineda Monterrey Aktiv 144 / 148 40% 1 29.08.2026 -
Richard Ledezma Guadalajara Aktiv 142 / 143 40% 2 27.08.2026 -
Sebastián Córdova Pumas UNAM Aktiv 138 / 132 40% 1 25.08.2026 -
Filip Marschall Stevenage Aktiv 98 / 118 40% 1 21.08.2026 -
Martín Ojeda Orlando City Aktiv 126 / 139 40% 1 20.08.2026 -
Alexey Miranchuk Krasnodar Aktiv 138 / 142 40% 1 14.08.2026 -
Richard Vargas La Equidad Aktiv 130 / 134 40% 2 12.08.2026 -
Ruslan Neshcheret Dynamo Kyiv Aktiv 109 / 126 40% 1 04.08.2026 -
Luis Romo Guadalajara Aktiv 139 / 132 40% 1 04.08.2026 -